Time;durP1;ratioP1;P1;durP2;ratioP2;P2;SDS_P1;SDS_P2;PMS_P1;PMS_P2;Temp;Humidity;BMP_temperature;BMP_pressure;BME280_temperature;BME280_humidity;BME280_pressure;Samples;Min_cycle;Max_cycle;Signal;HPM_P1;HPM_P2
2021/10/31 00:00:11;;;;;;;8.10;7.30;;;14.30;99.90;;;;;;2074713;28;20029;-69
2021/10/31 00:01:13;;;;;;;10.27;9.15;;;14.30;99.90;;;;;;2078482;28;20021;-69
2021/10/31 00:02:13;;;;;;;9.38;8.38;;;14.30;99.90;;;;;;2080600;28;20080;-69
2021/10/31 00:03:16;;;;;;;9.65;8.23;;;14.30;99.90;;;;;;2072711;28;20108;-69
2021/10/31 00:04:17;;;;;;;10.25;8.80;;;14.30;99.90;;;;;;2074237;28;20109;-69
2021/10/31 00:05:18;;;;;;;9.55;8.65;;;14.30;99.90;;;;;;2081093;28;20032;-69
2021/10/31 00:06:20;;;;;;;10.13;9.07;;;14.30;99.90;;;;;;2080132;28;20828;-69
2021/10/31 00:07:21;;;;;;;10.65;9.63;;;14.20;99.90;;;;;;2079153;28;20488;-69
2021/10/31 00:08:21;;;;;;;10.18;9.18;;;14.20;99.90;;;;;;2072069;28;20030;-69
2021/10/31 00:09:22;;;;;;;11.60;9.65;;;14.30;99.90;;;;;;2072526;28;20109;-69
2021/10/31 00:10:22;;;;;;;10.40;9.48;;;14.20;99.90;;;;;;2072543;28;20363;-69
2021/10/31 00:11:23;;;;;;;10.77;9.68;;;14.20;99.90;;;;;;2072648;28;20029;-69
2021/10/31 00:12:24;;;;;;;13.07;11.20;;;14.20;99.90;;;;;;2072509;28;20018;-69
2021/10/31 00:13:25;;;;;;;10.60;9.38;;;14.20;99.90;;;;;;2072728;28;20029;-69
2021/10/31 00:14:25;;;;;;;11.20;9.40;;;14.20;99.90;;;;;;2073576;28;20029;-69
2021/10/31 00:15:26;;;;;;;10.60;9.50;;;14.20;99.90;;;;;;2079548;28;20026;-69
2021/10/31 00:16:27;;;;;;;10.75;9.65;;;14.20;99.90;;;;;;2072477;28;20018;-69
2021/10/31 00:17:28;;;;;;;10.15;8.98;;;14.20;99.90;;;;;;2072008;28;20026;-69
2021/10/31 00:18:28;;;;;;;10.95;9.95;;;14.20;99.90;;;;;;2072203;28;20497;-69
2021/10/31 00:19:29;;;;;;;10.23;9.20;;;14.20;99.90;;;;;;2071846;28;20465;-69
2021/10/31 00:20:30;;;;;;;10.80;9.70;;;14.20;99.90;;;;;;2072504;28;20474;-69
2021/10/31 00:21:31;;;;;;;10.70;9.60;;;14.20;99.90;;;;;;2072234;28;20485;-69
2021/10/31 00:22:32;;;;;;;9.55;8.63;;;14.20;99.90;;;;;;2072478;28;20026;-69
2021/10/31 00:23:33;;;;;;;10.40;9.30;;;14.20;99.90;;;;;;2072312;28;20048;-69
2021/10/31 00:24:34;;;;;;;10.18;9.18;;;14.20;99.90;;;;;;2075917;28;20025;-69
2021/10/31 00:25:35;;;;;;;10.68;9.57;;;14.20;99.90;;;;;;2079394;28;20426;-70
2021/10/31 00:26:35;;;;;;;11.93;9.90;;;14.20;99.90;;;;;;2077975;28;20021;-69
2021/10/31 00:27:36;;;;;;;11.40;10.30;;;14.20;99.90;;;;;;2078824;28;20032;-69
2021/10/31 00:28:37;;;;;;;11.07;10.02;;;14.20;99.90;;;;;;2076934;28;20041;-69
2021/10/31 00:29:37;;;;;;;11.20;10.10;;;14.20;99.90;;;;;;2073233;28;20381;-69
2021/10/31 00:30:38;;;;;;;11.07;10.05;;;14.10;99.90;;;;;;2074169;28;20045;-69
2021/10/31 00:31:39;;;;;;;10.95;9.85;;;14.20;99.90;;;;;;2072162;28;20034;-69
2021/10/31 00:32:40;;;;;;;10.63;9.68;;;14.20;99.90;;;;;;2072216;28;20026;-69
2021/10/31 00:33:41;;;;;;;11.20;10.15;;;14.10;99.90;;;;;;2071352;28;20029;-69
2021/10/31 00:34:41;;;;;;;13.05;11.57;;;14.10;99.90;;;;;;2076378;28;20037;-69
2021/10/31 00:35:42;;;;;;;16.40;10.63;;;14.10;99.90;;;;;;2079921;28;20390;-69
2021/10/31 00:36:43;;;;;;;11.63;10.45;;;14.10;99.90;;;;;;2077055;28;20029;-69
2021/10/31 00:37:43;;;;;;;9.85;8.52;;;14.10;99.90;;;;;;2072321;28;20025;-70
2021/10/31 00:38:44;;;;;;;11.20;9.88;;;14.10;99.90;;;;;;2071909;28;20014;-69
2021/10/31 00:39:44;;;;;;;11.00;9.90;;;14.10;99.90;;;;;;2072032;28;20541;-69
2021/10/31 00:40:46;;;;;;;9.30;8.40;;;14.10;99.90;;;;;;2072536;28;20033;-69
2021/10/31 00:41:46;;;;;;;11.95;8.90;;;14.10;99.90;;;;;;2072088;28;20022;-69
2021/10/31 00:42:47;;;;;;;10.60;8.80;;;14.10;99.90;;;;;;2072239;28;20521;-69
2021/10/31 00:43:48;;;;;;;10.10;8.65;;;14.10;99.90;;;;;;2072111;28;20092;-69
2021/10/31 00:44:48;;;;;;;8.60;7.80;;;14.10;99.90;;;;;;2077463;28;20026;-69
2021/10/31 00:45:49;;;;;;;9.32;7.40;;;14.10;99.90;;;;;;2080577;28;20053;-69
2021/10/31 00:46:50;;;;;;;9.13;7.40;;;14.10;99.90;;;;;;2074354;28;20113;-69
2021/10/31 00:47:52;;;;;;;9.30;7.40;;;14.10;99.90;;;;;;2072233;28;20029;-69
2021/10/31 00:48:54;;;;;;;7.88;6.75;;;14.10;99.90;;;;;;2071714;28;20018;-69
2021/10/31 00:49:54;;;;;;;7.63;6.50;;;14.00;99.90;;;;;;2071857;28;20032;-69
2021/10/31 00:50:55;;;;;;;7.28;6.47;;;14.10;99.90;;;;;;2071977;28;20026;-69
2021/10/31 00:51:56;;;;;;;7.85;6.63;;;14.00;99.90;;;;;;2075344;28;20347;-69
2021/10/31 00:52:58;;;;;;;7.05;6.28;;;14.00;99.90;;;;;;2080166;28;20139;-69
2021/10/31 00:54:00;;;;;;;7.53;6.68;;;14.00;99.90;;;;;;2080255;28;20021;-69
2021/10/31 00:55:01;;;;;;;8.50;7.00;;;14.00;99.90;;;;;;2073417;28;20076;-69
2021/10/31 00:56:02;;;;;;;8.18;6.63;;;14.00;99.90;;;;;;2072166;28;20061;-69
2021/10/31 00:57:04;;;;;;;6.80;6.20;;;14.00;99.90;;;;;;2072106;28;20578;-69
2021/10/31 00:58:04;;;;;;;7.28;6.38;;;14.00;99.90;;;;;;2071773;28;20402;-69
2021/10/31 00:59:05;;;;;;;7.93;6.53;;;14.00;99.90;;;;;;2071823;28;20026;-69
2021/10/31 01:00:06;;;;;;;7.70;6.25;;;14.00;99.90;;;;;;2073492;28;20030;-69
2021/10/31 01:01:08;;;;;;;9.18;6.32;;;14.00;99.90;;;;;;2077679;28;20498;-69
2021/10/31 01:02:11;;;;;;;9.55;6.32;;;13.90;99.90;;;;;;2080305;28;20071;-69
2021/10/31 01:03:12;;;;;;;8.88;5.90;;;13.90;99.90;;;;;;2072486;28;20064;-69
2021/10/31 01:04:19;;;;;;;7.00;6.20;;;13.90;99.90;;;;;;2072093;28;20029;-69
2021/10/31 01:05:26;;;;;;;7.18;6.05;;;13.90;99.90;;;;;;2072918;28;20034;-69
2021/10/31 01:07:06;;;;;;;8.48;5.82;;;13.90;99.90;;;;;;2071496;28;20113;-69
2021/10/31 01:08:19;;;;;;;6.65;6.03;;;13.80;99.90;;;;;;2078307;28;20042;-69
2021/10/31 01:09:38;;;;;;;6.70;5.97;;;13.80;99.90;;;;;;2080101;28;20022;-69
2021/10/31 01:11:06;;;;;;;7.90;5.90;;;13.80;99.90;;;;;;2078406;28;20075;-69
2021/10/31 01:12:22;;;;;;;8.77;6.22;;;13.80;99.90;;;;;;2072177;28;20030;-70
2021/10/31 01:13:29;;;;;;;6.55;5.10;;;13.70;99.90;;;;;;2072076;28;20018;-69
2021/10/31 01:14:35;;;;;;;6.68;5.15;;;13.70;99.90;;;;;;2073872;28;20470;-69
2021/10/31 01:16:06;;;;;;;7.80;5.43;;;13.70;99.90;;;;;;2077156;28;20482;-69
2021/10/31 01:17:33;;;;;;;10.45;6.00;;;13.70;99.90;;;;;;2071804;28;20052;-69
2021/10/31 01:18:42;;;;;;;6.15;5.53;;;13.70;99.90;;;;;;2071142;28;20405;-69
2021/10/31 01:19:57;;;;;;;7.38;6.00;;;13.60;99.90;;;;;;2071758;28;20482;-69
2021/10/31 01:21:31;;;;;;;7.65;6.00;;;13.70;99.90;;;;;;2071724;28;20398;-69
2021/10/31 01:23:34;;;;;;;7.82;5.90;;;13.60;99.90;;;;;;2072044;28;20022;-69
2021/10/31 01:24:59;;;;;;;5.50;5.00;;;13.60;99.90;;;;;;2043931;28;20046;-69
2021/10/31 01:26:37;;;;;;;5.95;5.32;;;13.60;99.90;;;;;;2078848;28;20028;-69
2021/10/31 01:27:52;;;;;;;7.72;5.38;;;13.60;99.90;;;;;;2077742;28;20036;-69
2021/10/31 01:29:45;;;;;;;9.52;6.57;;;13.50;99.90;;;;;;2074206;28;20077;-69
2021/10/31 01:31:27;;;;;;;6.40;5.70;;;13.60;99.90;;;;;;2076352;28;20410;-69
2021/10/31 01:32:59;;;;;;;7.88;5.70;;;13.50;99.90;;;;;;2079630;28;20544;-69
2021/10/31 01:34:14;;;;;;;7.05;6.05;;;13.50;99.90;;;;;;2071560;28;20034;-69
2021/10/31 01:35:42;;;;;;;7.05;6.30;;;13.50;99.90;;;;;;2077181;28;20331;-69
2021/10/31 01:37:05;;;;;;;8.48;6.05;;;13.50;99.90;;;;;;2077651;28;20041;-69
2021/10/31 01:38:36;;;;;;;7.10;6.22;;;13.50;99.90;;;;;;2078119;28;20100;-69
2021/10/31 01:39:50;;;;;;;8.00;6.43;;;13.50;99.90;;;;;;2076815;28;20021;-69
2021/10/31 01:41:15;;;;;;;7.00;6.40;;;13.40;99.90;;;;;;2072019;28;20468;-69
2021/10/31 01:42:31;;;;;;;7.80;6.60;;;13.40;99.90;;;;;;2071904;28;20032;-69
2021/10/31 01:43:40;;;;;;;7.68;6.40;;;13.40;99.90;;;;;;2077610;28;20053;-69
2021/10/31 01:45:15;;;;;;;7.72;5.88;;;13.40;99.90;;;;;;2077078;28;20035;-69
2021/10/31 01:46:29;;;;;;;6.20;5.28;;;13.40;99.90;;;;;;2070779;28;20033;-69
2021/10/31 01:47:42;;;;;;;10.93;6.15;;;13.40;99.90;;;;;;2070904;28;20026;-69
2021/10/31 01:49:01;;;;;;;7.28;6.45;;;13.40;99.90;;;;;;2071222;28;20025;-69
2021/10/31 01:50:30;;;;;;;10.02;6.30;;;13.40;99.90;;;;;;2071763;28;20026;-69
2021/10/31 01:51:45;;;;;;;7.22;6.53;;;13.40;99.90;;;;;;2076547;28;20033;-69
2021/10/31 01:52:57;;;;;;;6.32;5.63;;;13.40;99.90;;;;;;2078093;28;20026;-69
2021/10/31 01:54:02;;;;;;;5.40;4.90;;;13.40;99.90;;;;;;2072210;28;20026;-69
2021/10/31 01:55:06;;;;;;;5.93;5.43;;;13.40;99.90;;;;;;2072027;28;20117;-69
2021/10/31 01:56:19;;;;;;;7.28;5.43;;;13.40;99.90;;;;;;2071910;28;20030;-69
2021/10/31 01:57:22;;;;;;;7.22;6.40;;;13.40;99.90;;;;;;2071631;28;20030;-69
2021/10/31 01:58:24;;;;;;;10.20;6.97;;;13.40;99.90;;;;;;2071229;28;20034;-69
2021/10/31 01:59:29;;;;;;;5.75;5.10;;;13.40;99.90;;;;;;2071379;28;20042;-69
2021/10/31 02:00:31;;;;;;;8.35;5.57;;;13.40;99.90;;;;;;2077066;28;20069;-69
2021/10/31 02:01:36;;;;;;;5.53;5.03;;;13.40;99.90;;;;;;2077510;28;20028;-69
2021/10/31 02:02:43;;;;;;;6.47;5.90;;;13.40;99.90;;;;;;2077276;28;20025;-69
2021/10/31 02:03:47;;;;;;;8.32;6.07;;;13.40;99.90;;;;;;2071600;28;20014;-69
2021/10/31 02:04:50;;;;;;;8.40;7.15;;;13.40;99.90;;;;;;2074131;28;20368;-69
2021/10/31 02:05:52;;;;;;;7.82;7.07;;;13.40;99.90;;;;;;2078101;28;20021;-69
2021/10/31 02:06:54;;;;;;;7.80;6.68;;;13.40;99.90;;;;;;2086169;28;20036;-70
2021/10/31 02:08:01;;;;;;;7.40;5.65;;;13.40;99.90;;;;;;2079638;28;20056;-69
2021/10/31 02:09:02;;;;;;;7.55;6.20;;;13.40;99.90;;;;;;2072534;28;20048;-69
2021/10/31 02:10:03;;;;;;;7.57;6.70;;;13.40;99.90;;;;;;2087915;28;20518;-70
2021/10/31 02:11:06;;;;;;;9.43;6.10;;;13.30;99.90;;;;;;2077698;28;20398;-69
2021/10/31 02:12:14;;;;;;;7.07;5.63;;;13.40;99.90;;;;;;2071522;28;20112;-69
2021/10/31 02:13:15;;;;;;;6.18;5.57;;;13.30;99.90;;;;;;2071672;28;20454;-69
2021/10/31 02:14:18;;;;;;;7.25;6.43;;;13.30;99.90;;;;;;2071522;28;20120;-69
2021/10/31 02:15:21;;;;;;;7.55;6.68;;;13.30;99.90;;;;;;2073041;28;20473;-69
2021/10/31 02:16:22;;;;;;;7.72;5.45;;;13.30;99.90;;;;;;2071615;28;20041;-69
2021/10/31 02:17:24;;;;;;;7.45;6.05;;;13.30;99.90;;;;;;2074901;28;20101;-69
2021/10/31 02:18:26;;;;;;;9.63;6.68;;;13.30;99.90;;;;;;2079236;28;20033;-70
2021/10/31 02:19:50;;;;;;;5.93;5.32;;;13.30;99.90;;;;;;2079703;28;20030;-69
2021/10/31 02:20:53;;;;;;;6.82;5.10;;;13.30;99.90;;;;;;2079749;28;20404;-69
2021/10/31 02:21:59;;;;;;;6.65;5.95;;;13.30;99.90;;;;;;2079651;28;20104;-69
2021/10/31 02:23:03;;;;;;;6.78;5.78;;;13.30;99.90;;;;;;2080154;28;20051;-69
2021/10/31 02:24:07;;;;;;;8.18;6.32;;;13.30;99.90;;;;;;2079513;28;20063;-69
2021/10/31 02:25:08;;;;;;;5.70;5.20;;;13.30;99.90;;;;;;2074586;28;20465;-69
2021/10/31 02:26:08;;;;;;;7.55;4.85;;;13.20;99.90;;;;;;2072989;28;20116;-69
2021/10/31 02:27:21;;;;;;;6.63;5.93;;;13.20;99.90;;;;;;2072307;28;20038;-70
2021/10/31 02:28:22;;;;;;;5.47;4.90;;;13.20;99.90;;;;;;2073774;28;20052;-69
2021/10/31 02:29:23;;;;;;;6.60;5.72;;;13.20;99.90;;;;;;2078009;28;20036;-69
2021/10/31 02:30:24;;;;;;;6.05;5.43;;;13.20;99.90;;;;;;2071176;28;20119;-69
2021/10/31 02:31:26;;;;;;;6.32;5.72;;;13.20;99.90;;;;;;2071529;28;20034;-69
2021/10/31 02:32:31;;;;;;;6.35;5.05;;;13.20;99.90;;;;;;2071494;28;20041;-69
2021/10/31 02:33:31;;;;;;;6.13;5.25;;;13.10;99.90;;;;;;2071507;28;20029;-69
2021/10/31 02:34:32;;;;;;;6.05;5.45;;;13.20;99.90;;;;;;2071730;28;20077;-69
2021/10/31 02:35:33;;;;;;;11.02;5.50;;;13.10;99.90;;;;;;2071861;28;20061;-69
2021/10/31 02:36:35;;;;;;;10.18;6.65;;;13.10;99.90;;;;;;2071217;28;20041;-69
2021/10/31 02:37:39;;;;;;;8.73;6.20;;;13.10;99.90;;;;;;2071246;28;20132;-69
2021/10/31 02:38:40;;;;;;;9.77;6.75;;;13.10;99.90;;;;;;2071034;28;20102;-69
2021/10/31 02:39:41;;;;;;;10.48;7.05;;;13.10;99.90;;;;;;2071545;28;20029;-69
2021/10/31 02:40:42;;;;;;;6.93;6.22;;;13.00;99.90;;;;;;2071653;28;20030;-69
2021/10/31 02:41:42;;;;;;;6.15;5.47;;;13.00;99.90;;;;;;2072876;28;20497;-69
2021/10/31 02:42:43;;;;;;;6.13;5.53;;;13.00;99.90;;;;;;2079105;28;20096;-69
2021/10/31 02:43:44;;;;;;;7.18;6.47;;;13.00;99.90;;;;;;2081606;28;20381;-69
2021/10/31 02:44:44;;;;;;;6.43;5.65;;;13.00;99.90;;;;;;2077355;28;20021;-69
2021/10/31 02:45:45;;;;;;;6.75;5.32;;;13.00;99.90;;;;;;2084608;28;20032;-69
2021/10/31 02:46:46;;;;;;;8.50;6.50;;;12.90;99.90;;;;;;2079111;28;20049;-69
2021/10/31 02:47:56;;;;;;;7.25;6.03;;;13.00;99.90;;;;;;2079108;28;20082;-69
2021/10/31 02:48:57;;;;;;;9.68;6.85;;;12.90;99.90;;;;;;2071045;28;20068;-69
2021/10/31 02:49:59;;;;;;;8.23;6.88;;;12.90;99.90;;;;;;2070608;28;20034;-69
2021/10/31 02:51:12;;;;;;;6.78;6.18;;;12.90;99.90;;;;;;2072610;28;20076;-69
2021/10/31 02:52:24;;;;;;;7.70;5.88;;;12.90;99.90;;;;;;2078849;28;20052;-69
2021/10/31 02:53:37;;;;;;;7.55;6.40;;;12.90;99.90;;;;;;2071862;28;20026;-69
2021/10/31 02:55:11;;;;;;;7.63;6.05;;;12.90;99.90;;;;;;2070275;28;20026;-69
2021/10/31 02:56:33;;;;;;;5.95;5.32;;;12.80;99.90;;;;;;2074608;28;20026;-69
2021/10/31 02:57:49;;;;;;;6.93;6.05;;;12.80;99.90;;;;;;2070853;28;20022;-69
2021/10/31 02:59:04;;;;;;;7.13;5.45;;;12.80;99.90;;;;;;2071175;28;20068;-69
2021/10/31 03:00:06;;;;;;;9.27;6.10;;;12.80;99.90;;;;;;2078948;28;20473;-69
2021/10/31 03:01:07;;;;;;;6.88;6.13;;;12.70;99.90;;;;;;2079193;28;20049;-69
2021/10/31 03:02:10;;;;;;;7.53;5.60;;;12.70;99.90;;;;;;2082651;28;20025;-69
2021/10/31 03:03:12;;;;;;;7.22;5.85;;;12.70;99.90;;;;;;2074795;28;20045;-69
2021/10/31 03:04:14;;;;;;;6.30;5.65;;;12.70;99.90;;;;;;2074331;28;20022;-69
2021/10/31 03:05:15;;;;;;;5.78;5.28;;;12.70;99.90;;;;;;2076117;28;20022;-69
2021/10/31 03:06:20;;;;;;;7.43;5.35;;;12.70;99.90;;;;;;2082440;28;20029;-69
2021/10/31 03:07:22;;;;;;;10.63;6.63;;;12.70;99.90;;;;;;2080443;28;20029;-69
2021/10/31 03:08:24;;;;;;;8.45;6.10;;;12.70;99.90;;;;;;2073774;28;20870;-69
2021/10/31 03:09:25;;;;;;;7.13;5.80;;;12.70;99.90;;;;;;2074137;28;20026;-69
2021/10/31 03:10:26;;;;;;;6.80;6.10;;;12.70;99.90;;;;;;2074411;28;20509;-69
2021/10/31 03:11:27;;;;;;;7.30;6.22;;;12.70;99.90;;;;;;2074055;28;20559;-69
2021/10/31 03:12:27;;;;;;;5.50;4.95;;;12.70;99.90;;;;;;2074177;28;20049;-69
2021/10/31 03:13:28;;;;;;;6.10;4.88;;;12.70;99.90;;;;;;2074042;28;20026;-69
2021/10/31 03:14:29;;;;;;;6.15;4.72;;;12.70;99.90;;;;;;2075412;28;20474;-70
2021/10/31 03:15:29;;;;;;;6.60;5.38;;;12.70;99.90;;;;;;2081777;28;20060;-69
2021/10/31 03:16:34;;;;;;;7.78;5.88;;;12.70;99.90;;;;;;2082332;28;20493;-69
2021/10/31 03:17:34;;;;;;;7.15;6.10;;;12.70;99.90;;;;;;2076803;28;20045;-69
2021/10/31 03:18:36;;;;;;;7.00;5.72;;;12.70;99.90;;;;;;2073636;28;20022;-69
2021/10/31 03:19:37;;;;;;;9.88;5.80;;;12.70;99.90;;;;;;2073848;28;20132;-69
2021/10/31 03:20:38;;;;;;;9.02;5.78;;;12.70;99.90;;;;;;2074196;28;20037;-69
2021/10/31 03:21:39;;;;;;;7.13;5.40;;;12.70;99.90;;;;;;2074114;28;20062;-69
2021/10/31 03:22:39;;;;;;;9.32;6.18;;;12.70;99.90;;;;;;2074356;28;20022;-69
2021/10/31 03:23:40;;;;;;;8.38;6.30;;;12.60;99.90;;;;;;2073820;28;20030;-69
2021/10/31 03:24:40;;;;;;;7.30;6.28;;;12.70;99.90;;;;;;2073984;28;20621;-69
2021/10/31 03:25:41;;;;;;;7.57;6.30;;;12.60;99.90;;;;;;2079141;28;20055;-69
2021/10/31 03:26:41;;;;;;;12.23;6.55;;;12.60;99.90;;;;;;2081895;28;20088;-69
2021/10/31 03:27:42;;;;;;;7.90;5.57;;;12.60;99.90;;;;;;2080993;28;20025;-69
2021/10/31 03:28:43;;;;;;;6.85;5.85;;;12.60;99.90;;;;;;2077779;28;20033;-69
2021/10/31 03:29:43;;;;;;;6.68;5.57;;;12.60;99.90;;;;;;2074126;28;20022;-69
2021/10/31 03:30:44;;;;;;;7.30;5.63;;;12.60;99.90;;;;;;2073966;28;20068;-69
2021/10/31 03:31:44;;;;;;;6.70;6.00;;;12.60;99.90;;;;;;2073851;28;20033;-69
2021/10/31 03:32:45;;;;;;;7.93;5.63;;;12.60;99.90;;;;;;2074401;28;20022;-69
2021/10/31 03:33:46;;;;;;;6.43;5.82;;;12.60;99.90;;;;;;2073896;28;20018;-69
2021/10/31 03:34:46;;;;;;;8.73;5.75;;;12.60;99.90;;;;;;2073998;28;20037;-69
2021/10/31 03:35:47;;;;;;;7.95;5.82;;;12.60;99.90;;;;;;2074410;28;20030;-69
2021/10/31 03:36:48;;;;;;;8.70;6.18;;;12.60;99.90;;;;;;2073971;28;20469;-69
2021/10/31 03:37:50;;;;;;;10.15;6.72;;;12.60;99.90;;;;;;2074098;28;20083;-69
2021/10/31 03:38:51;;;;;;;8.25;6.10;;;12.60;99.90;;;;;;2074586;28;20021;-69
2021/10/31 03:39:51;;;;;;;13.77;6.05;;;12.60;99.90;;;;;;2080396;28;20105;-69
2021/10/31 03:40:52;;;;;;;7.60;5.93;;;12.60;99.90;;;;;;2074065;28;20029;-69
2021/10/31 03:41:53;;;;;;;10.02;6.05;;;12.60;99.90;;;;;;2074069;28;20048;-69
2021/10/31 03:42:53;;;;;;;8.25;5.43;;;12.60;99.90;;;;;;2073642;28;20053;-69
2021/10/31 03:43:54;;;;;;;7.32;5.38;;;12.60;99.90;;;;;;2073231;28;20018;-69
2021/10/31 03:44:55;;;;;;;10.25;6.18;;;12.60;99.90;;;;;;2073198;28;20052;-69
2021/10/31 03:45:56;;;;;;;8.25;5.28;;;12.60;99.90;;;;;;2079218;28;20045;-69
2021/10/31 03:46:56;;;;;;;6.85;5.25;;;12.60;99.90;;;;;;2081923;28;20037;-69
2021/10/31 03:47:57;;;;;;;6.07;5.22;;;12.60;99.90;;;;;;2080493;28;20044;-70
2021/10/31 03:48:58;;;;;;;9.95;5.65;;;12.60;99.90;;;;;;2073145;28;20025;-69
2021/10/31 03:49:59;;;;;;;10.57;6.03;;;12.60;99.90;;;;;;2073889;28;20466;-69
2021/10/31 03:51:00;;;;;;;4.97;4.55;;;12.60;99.90;;;;;;2077558;28;20404;-69
2021/10/31 03:52:00;;;;;;;6.88;5.25;;;12.60;99.90;;;;;;2082432;28;20036;-69
2021/10/31 03:53:01;;;;;;;7.78;4.95;;;12.60;99.90;;;;;;2077254;28;20028;-69
2021/10/31 03:54:01;;;;;;;10.13;5.22;;;12.60;99.90;;;;;;2073227;28;20649;-69
2021/10/31 03:55:03;;;;;;;7.30;5.15;;;12.60;99.90;;;;;;2073669;28;20034;-69
2021/10/31 03:56:04;;;;;;;9.45;4.75;;;12.60;99.90;;;;;;2081661;28;20113;-69
2021/10/31 03:57:05;;;;;;;8.82;5.38;;;12.60;99.90;;;;;;2081956;28;20037;-69
2021/10/31 03:58:06;;;;;;;7.30;4.95;;;12.70;99.90;;;;;;2076170;28;20061;-69
2021/10/31 03:59:06;;;;;;;11.88;4.90;;;12.70;99.90;;;;;;2073408;28;20022;-69
2021/10/31 04:00:09;;;;;;;11.55;5.15;;;12.70;99.90;;;;;;2075014;28;20030;-69
2021/10/31 04:01:10;;;;;;;6.85;4.65;;;12.60;99.90;;;;;;2079194;28;20026;-69
2021/10/31 04:02:10;;;;;;;7.28;5.22;;;12.70;99.90;;;;;;2080208;28;20053;-69
2021/10/31 04:03:11;;;;;;;6.95;4.63;;;12.70;99.90;;;;;;2073080;28;20076;-69
2021/10/31 04:04:12;;;;;;;8.00;4.75;;;12.70;99.90;;;;;;2072819;28;20018;-69
2021/10/31 04:05:13;;;;;;;6.68;5.13;;;12.70;99.90;;;;;;2072952;28;20065;-69
2021/10/31 04:06:13;;;;;;;5.60;4.88;;;12.70;99.90;;;;;;2081050;28;20548;-69
2021/10/31 04:07:14;;;;;;;6.00;4.57;;;12.70;99.90;;;;;;2080491;28;20025;-69
2021/10/31 04:08:15;;;;;;;7.45;4.38;;;12.70;99.90;;;;;;2080634;28;20061;-69
2021/10/31 04:09:15;;;;;;;6.15;4.45;;;12.70;99.90;;;;;;2076957;28;20030;-69
2021/10/31 04:10:16;;;;;;;5.22;4.70;;;12.70;99.90;;;;;;2072755;28;20674;-69
2021/10/31 04:11:16;;;;;;;6.75;4.70;;;12.70;99.90;;;;;;2071977;28;20530;-69
2021/10/31 04:12:17;;;;;;;8.25;4.97;;;12.70;99.90;;;;;;2072022;28;20045;-69
2021/10/31 04:13:18;;;;;;;7.80;5.00;;;12.70;99.90;;;;;;2072543;28;20474;-69
2021/10/31 04:14:18;;;;;;;5.38;4.88;;;12.70;99.90;;;;;;2072281;28;20658;-69
2021/10/31 04:15:20;;;;;;;8.30;4.68;;;12.70;99.90;;;;;;2079210;28;20038;-69
2021/10/31 04:16:21;;;;;;;6.30;4.63;;;12.70;99.90;;;;;;2072462;28;20241;-69
2021/10/31 04:17:22;;;;;;;8.38;4.72;;;12.70;99.90;;;;;;2072289;28;20073;-69
2021/10/31 04:18:23;;;;;;;8.07;4.63;;;12.70;99.90;;;;;;2072185;28;20026;-69
2021/10/31 04:19:23;;;;;;;5.25;4.65;;;12.70;99.90;;;;;;2071414;28;20018;-69
2021/10/31 04:20:24;;;;;;;4.93;4.43;;;12.70;99.90;;;;;;2071641;28;20030;-69
2021/10/31 04:21:25;;;;;;;5.68;4.63;;;12.70;99.90;;;;;;2071930;28;20018;-69
2021/10/31 04:22:28;;;;;;;7.47;4.90;;;12.60;99.90;;;;;;2071570;28;20037;-69
2021/10/31 04:23:30;;;;;;;6.40;5.10;;;12.70;99.90;;;;;;2072506;28;20057;-69
2021/10/31 04:24:32;;;;;;;5.93;4.72;;;12.70;99.90;;;;;;2072087;28;20033;-69
2021/10/31 04:25:33;;;;;;;8.15;5.03;;;12.70;99.90;;;;;;2072532;28;20028;-69
2021/10/31 04:26:33;;;;;;;6.05;4.90;;;12.70;99.90;;;;;;2077126;28;20029;-69
2021/10/31 04:27:35;;;;;;;5.55;4.88;;;12.70;99.90;;;;;;2078249;28;20020;-69
2021/10/31 04:28:35;;;;;;;8.60;5.13;;;12.60;99.90;;;;;;2076940;28;20034;-69
2021/10/31 04:29:36;;;;;;;5.60;3.78;;;12.70;99.90;;;;;;2077722;28;20799;-69
2021/10/31 04:30:36;;;;;;;5.88;4.43;;;12.60;99.90;;;;;;2079734;28;20037;-69
2021/10/31 04:31:37;;;;;;;5.75;4.43;;;12.70;99.90;;;;;;2079537;28;20076;-69
2021/10/31 04:32:38;;;;;;;5.93;4.47;;;12.70;99.90;;;;;;2072910;28;20018;-69
2021/10/31 04:33:39;;;;;;;6.45;5.28;;;12.70;99.90;;;;;;2080002;28;20025;-69
2021/10/31 04:34:39;;;;;;;6.78;4.97;;;12.70;99.90;;;;;;2080266;28;20025;-69
2021/10/31 04:35:40;;;;;;;7.95;5.40;;;12.70;99.90;;;;;;2076000;28;20017;-69
2021/10/31 04:36:40;;;;;;;10.68;6.18;;;12.70;99.90;;;;;;2077870;28;20072;-69
2021/10/31 04:37:44;;;;;;;6.70;5.40;;;12.70;99.90;;;;;;2078316;28;20013;-69
2021/10/31 04:38:47;;;;;;;5.68;4.88;;;12.70;99.90;;;;;;2073880;28;20509;-69
2021/10/31 04:39:49;;;;;;;7.32;5.43;;;12.70;99.90;;;;;;2078495;28;20025;-69
2021/10/31 04:40:49;;;;;;;9.55;6.07;;;12.70;99.90;;;;;;2072246;28;20520;-69
2021/10/31 04:41:50;;;;;;;6.50;5.32;;;12.60;99.90;;;;;;2072550;28;20406;-69
2021/10/31 04:42:53;;;;;;;7.18;5.53;;;12.70;99.90;;;;;;2075004;28;20021;-69
2021/10/31 04:43:54;;;;;;;7.80;5.13;;;12.70;99.90;;;;;;2080688;28;20021;-69
2021/10/31 04:44:55;;;;;;;6.97;4.93;;;12.70;99.90;;;;;;2076682;28;20044;-69
2021/10/31 04:45:56;;;;;;;8.45;5.53;;;12.70;99.90;;;;;;2072380;28;20037;-69
2021/10/31 04:46:57;;;;;;;6.30;4.78;;;12.70;99.90;;;;;;2072088;28;20045;-69
2021/10/31 04:47:58;;;;;;;5.65;4.80;;;12.70;99.90;;;;;;2072227;28;20099;-69
2021/10/31 04:48:58;;;;;;;5.93;4.03;;;12.70;99.90;;;;;;2071533;28;20022;-69
2021/10/31 04:49:59;;;;;;;4.63;4.22;;;12.70;99.90;;;;;;2072446;28;20109;-69
2021/10/31 04:51:00;;;;;;;4.85;4.35;;;12.70;99.90;;;;;;2074994;28;20088;-69
2021/10/31 04:52:02;;;;;;;5.28;4.60;;;12.70;99.90;;;;;;2079915;28;20057;-69
2021/10/31 04:53:04;;;;;;;5.68;4.28;;;12.70;99.90;;;;;;2079479;28;20037;-69
2021/10/31 04:54:04;;;;;;;6.35;4.80;;;12.70;99.90;;;;;;2080567;28;20029;-70
2021/10/31 04:55:05;;;;;;;6.50;4.80;;;12.70;99.90;;;;;;2072629;28;20029;-69
2021/10/31 04:56:06;;;;;;;8.80;5.72;;;12.70;99.90;;;;;;2072115;28;20026;-69
2021/10/31 04:57:07;;;;;;;7.90;5.65;;;12.70;99.90;;;;;;2071326;28;20026;-69
2021/10/31 04:58:09;;;;;;;6.10;5.13;;;12.70;99.90;;;;;;2070991;28;20060;-69
2021/10/31 04:59:10;;;;;;;5.10;4.57;;;12.70;99.90;;;;;;2071534;28;20022;-69
2021/10/31 05:00:11;;;;;;;6.28;4.68;;;12.60;99.90;;;;;;2073950;28;20037;-69
2021/10/31 05:01:12;;;;;;;8.95;5.18;;;12.60;99.90;;;;;;2077995;28;20092;-69
2021/10/31 05:02:12;;;;;;;6.35;5.00;;;12.60;99.90;;;;;;2080238;28;20104;-69
2021/10/31 05:03:13;;;;;;;7.63;4.93;;;12.60;99.90;;;;;;2073442;28;20378;-69
2021/10/31 05:04:14;;;;;;;7.05;4.97;;;12.60;99.90;;;;;;2072184;28;20121;-69
2021/10/31 05:05:14;;;;;;;5.72;4.85;;;12.60;99.90;;;;;;2072205;28;20474;-69
2021/10/31 05:06:15;;;;;;;4.97;4.25;;;12.60;99.90;;;;;;2071718;28;20130;-69
2021/10/31 05:07:16;;;;;;;9.88;4.32;;;12.60;99.90;;;;;;2072416;28;20477;-69
2021/10/31 05:08:17;;;;;;;5.88;4.85;;;12.60;99.90;;;;;;2071482;28;20542;-69
2021/10/31 05:09:18;;;;;;;6.85;4.80;;;12.60;99.90;;;;;;2072002;28;20476;-69
2021/10/31 05:10:18;;;;;;;5.22;4.72;;;12.60;99.90;;;;;;2071979;28;20084;-69
2021/10/31 05:11:19;;;;;;;4.72;4.00;;;12.60;99.90;;;;;;2072087;28;20034;-69
2021/10/31 05:12:22;;;;;;;6.78;5.80;;;12.60;99.90;;;;;;2072144;28;21561;-69
2021/10/31 05:13:22;;;;;;;6.93;4.28;;;12.60;99.90;;;;;;2078570;28;20025;-69
2021/10/31 05:14:23;;;;;;;5.30;4.80;;;12.50;99.90;;;;;;2079983;28;20534;-69
2021/10/31 05:15:23;;;;;;;5.30;4.72;;;12.50;99.90;;;;;;2079124;28;20034;-69
2021/10/31 05:16:24;;;;;;;6.65;4.80;;;12.50;99.90;;;;;;2071964;28;20185;-69
2021/10/31 05:17:24;;;;;;;6.43;5.18;;;12.50;99.90;;;;;;2071968;28;20117;-69
2021/10/31 05:18:25;;;;;;;4.90;4.40;;;12.50;99.90;;;;;;2071279;28;20045;-69
2021/10/31 05:19:26;;;;;;;6.20;4.53;;;12.50;99.90;;;;;;2072139;28;20101;-69
2021/10/31 05:20:26;;;;;;;7.55;6.20;;;12.50;99.90;;;;;;2071618;28;20030;-69
2021/10/31 05:21:27;;;;;;;6.35;5.30;;;12.50;99.90;;;;;;2072179;28;20061;-69
2021/10/31 05:22:27;;;;;;;5.53;4.88;;;12.40;99.90;;;;;;2071160;28;20477;-69
2021/10/31 05:23:28;;;;;;;7.07;5.45;;;12.50;99.90;;;;;;2078831;28;20378;-69
2021/10/31 05:24:28;;;;;;;6.82;6.13;;;12.40;99.90;;;;;;2080101;28;20033;-69
2021/10/31 05:25:29;;;;;;;6.90;5.28;;;12.40;99.90;;;;;;2076188;28;20037;-69
2021/10/31 05:26:29;;;;;;;7.72;5.90;;;12.40;99.90;;;;;;2075576;28;20036;-69
2021/10/31 05:27:30;;;;;;;6.25;5.10;;;12.40;99.90;;;;;;2078324;28;20033;-70
2021/10/31 05:28:31;;;;;;;7.05;6.35;;;12.40;99.90;;;;;;2077089;28;20148;-69
2021/10/31 05:29:32;;;;;;;8.10;5.78;;;12.40;99.90;;;;;;2071916;28;20029;-69
2021/10/31 05:30:33;;;;;;;8.07;5.60;;;12.40;99.90;;;;;;2071564;28;20497;-69
2021/10/31 05:31:33;;;;;;;7.15;6.35;;;12.40;99.90;;;;;;2072133;28;20033;-69
2021/10/31 05:32:36;;;;;;;5.75;5.13;;;12.40;99.90;;;;;;2071838;28;20037;-69
2021/10/31 05:33:37;;;;;;;11.27;5.97;;;12.40;99.90;;;;;;2079895;28;20079;-69